KMDW

Chicago Midway International Airport

Chicago, Illinois, USA
METAR KMDW 161522Z 28010G19KT 8SM BKN017 BKN023 OVC040 04/00 A2992 RMK AO2 T00440000
Observed Flight Rules
Nov-16 @ 15:22 UTC (43 minutes ago) Marginal Visual Flight Rules
Wind Visibility Clouds
280° at 10 knots
 Gusting to 19 knots
8 miles
  • Broken at 1,700' AGL
  • Broken at 2,300' AGL
  • Overcast at 4,000' AGL
Temperatures Readings
Current 4°C / 39°F
Dewpoint 0°C / 32°F
Humidity 75%
Altimeter 29.92" Hg
Pressure 1013 hPa
Elevation 188
METAR KMDW 161522Z 28010G19KT 8SM BKN017 BKN023 OVC040 04/00 A2992 RMK AO2 T00440000
Observed Flight Rules
Nov-16 @ 15:22 UTC
(43 minutes ago)
MVFR
Wind Visibility
280° at 10 knots
 Gusting to 19 knots
8 miles
Clouds
  • Broken at 1,700' AGL
  • Broken at 2,300' AGL
  • Overcast at 4,000' AGL
Temperature Dewpoint
4°C / 39°F 0°C / 32°F
Humidity Altimeter Pressure
75% 29.92" Hg 1013 hPa